Pagrindinis puslapis
METAR-TAF:

METAR-TAF

Oro uostai :

Kanzas Sitis, Misūris, Jungtinės Amerikos Valstijos

platuma: 39-17-50N, ilguma: 094-43-50W, Aukštis: 312 m

Dabartinis oras

Ataskaita buvo paskelbta 16 minutes, ne 05:53 UTC
Vėjas 6 kt iš Pietų/Pietryčių
Temperatūra -2°C
Drėgmė 74%
Slėgis 1028 hPa
Matomumas: 16.1 km
Giedras dangus

METAR: KMCI 070553Z 15006KT 10SM CLR M02/M06 A3036 RMK AO2 SLP289 T10221056 10011 21022 400781022 58006

Laikas: 00:09 (06:09 UTC)

Prognozė

Ataskaita buvo paskelbta 34 minutes, ne 05:35 UTC
Prognozė galioja nuo 07 metu 06 UTC su 08 metu 06 UTC
Vėjas 9 kt iš Pietų
Matomumas: 10 km
Išsisklaidę debesys ne aukštis 25000 ft

TAF: KMCI 070535Z 0706/0806 18009KT P6SM SCT250

Orai ataskaitas ir orų prognozės (METAR, TAF).

turimą stotys yra geltonos ir raudonos taškus žemėlapyje.

Perkelti pele per norėdami pamatyti stoties vardą.

Tada spustelėkite, norėdami matyti oro stebėjimo ir prognozės.

Norėdami pakeisti žemėlapį: spustelėkite ant žalios mygtukų su juodo kryžiaus žemyn,; žalią mygtuką su brūkšneliu, jei norite nutolinti; arba žalių rodyklių gretimoms žemėlapius.


METAR-TAF: